Time;durP1;ratioP1;P1;durP2;ratioP2;P2;SDS_P1;SDS_P2;PMS_P1;PMS_P2;Temp;Humidity;BMP_temperature;BMP_pressure;BME280_temperature;BME280_humidity;BME280_pressure;Samples;Min_cycle;Max_cycle;Signal;HPM_P1;HPM_P2
2023/09/01 00:01:02;;;;;;;3.10;1.27;;;21.80;74.30;;;;;;2256178;56;20999;-66
2023/09/01 00:03:29;;;;;;;2.80;1.23;;;21.80;74.30;;;;;;2483822;55;21025;-66
2023/09/01 00:05:58;;;;;;;3.12;1.37;;;21.80;74.20;;;;;;2255132;56;21007;-66
2023/09/01 00:08:25;;;;;;;2.67;1.10;;;21.90;74.30;;;;;;2484199;55;20978;-68
2023/09/01 00:10:51;;;;;;;2.87;1.30;;;21.90;74.30;;;;;;2256992;56;21046;-67
2023/09/01 00:13:18;;;;;;;2.80;1.00;;;21.90;74.40;;;;;;2484462;55;20943;-67
2023/09/01 00:15:44;;;;;;;2.50;1.10;;;21.90;74.50;;;;;;2255726;56;20967;-67
2023/09/01 00:18:11;;;;;;;3.30;1.10;;;21.90;74.60;;;;;;2256795;56;20966;-66
2023/09/01 00:20:37;;;;;;;2.33;0.90;;;21.90;74.50;;;;;;2483474;55;21084;-66
2023/09/01 00:23:07;;;;;;;2.85;1.17;;;22.00;74.70;;;;;;2483834;55;21856;-67
2023/09/01 00:25:33;;;;;;;3.35;1.08;;;22.00;74.80;;;;;;2483495;55;20997;-65
2023/09/01 00:28:00;;;;;;;2.30;1.08;;;22.00;74.70;;;;;;2449100;55;20971;-67
2023/09/01 00:30:52;;;;;;;2.72;1.15;;;22.00;74.60;;;;;;2257132;56;20983;-66
2023/09/01 00:33:19;;;;;;;4.93;1.20;;;22.10;72.90;;;;;;2260117;56;20950;-67
2023/09/01 00:35:45;;;;;;;3.12;1.10;;;22.00;74.40;;;;;;2276423;56;20985;-66
2023/09/01 00:38:11;;;;;;;3.78;1.10;;;22.00;74.40;;;;;;2450299;55;20982;-68
2023/09/01 00:40:38;;;;;;;3.15;1.23;;;22.10;74.50;;;;;;2255718;56;20962;-65
2023/09/01 00:43:04;;;;;;;3.15;1.10;;;22.00;74.50;;;;;;2483760;55;21018;-67
2023/09/01 00:45:31;;;;;;;2.85;1.00;;;22.10;74.60;;;;;;2490152;55;21019;-68
2023/09/01 00:47:59;;;;;;;3.20;1.05;;;22.10;74.60;;;;;;2254073;56;20966;-67
2023/09/01 00:50:26;;;;;;;3.58;1.20;;;22.10;74.50;;;;;;2477343;55;21562;-68
2023/09/01 00:52:52;;;;;;;3.40;1.20;;;22.10;74.40;;;;;;2250012;56;20973;-67
2023/09/01 00:55:18;;;;;;;3.35;1.23;;;22.10;74.40;;;;;;2491063;55;20962;-67
2023/09/01 00:57:45;;;;;;;3.10;1.40;;;22.10;74.50;;;;;;2446110;55;20950;-67
2023/09/01 01:00:11;;;;;;;2.58;1.25;;;22.10;74.30;;;;;;2490913;55;20947;-66
2023/09/01 01:02:38;;;;;;;3.62;1.15;;;22.10;74.20;;;;;;2255963;56;20947;-65
2023/09/01 01:05:14;;;;;;;2.92;1.20;;;22.10;74.40;;;;;;2256035;56;21777;-67
2023/09/01 01:09:17;;;;;;;2.45;0.93;;;22.10;74.40;;;;;;2259883;56;21015;-67
2023/09/01 01:12:08;;;;;;;2.50;0.95;;;22.10;72.20;;;;;;2255846;56;21482;-67
2023/09/01 01:14:45;;;;;;;3.40;1.37;;;22.10;74.20;;;;;;2256174;56;20977;-67
2023/09/01 01:17:12;;;;;;;3.03;1.10;;;22.10;73.40;;;;;;2253085;56;21074;-67
2023/09/01 01:20:39;;;;;;;2.30;0.80;;;22.10;74.30;;;;;;2255383;56;21017;-65
2023/09/01 01:23:14;;;;;;;2.50;0.90;;;22.10;72.10;;;;;;2252131;56;20969;-66
2023/09/01 01:25:50;;;;;;;2.92;1.08;;;22.10;73.80;;;;;;2255649;56;20990;-66
2023/09/01 01:28:17;;;;;;;2.08;1.00;;;22.10;73.20;;;;;;2236338;57;21066;-68
2023/09/01 01:30:47;;;;;;;2.30;0.98;;;22.00;74.20;;;;;;2256207;56;21062;-67
2023/09/01 01:36:05;;;;;;;2.85;1.10;;;22.00;74.20;;;;;;2496721;55;20959;-67
2023/09/01 01:38:32;;;;;;;2.70;0.98;;;22.10;72.50;;;;;;2517382;54;21001;-67
2023/09/01 01:41:09;;;;;;;2.28;1.00;;;22.10;74.50;;;;;;2282299;55;20967;-66
2023/09/01 01:43:37;;;;;;;2.97;1.33;;;22.10;73.50;;;;;;2521087;55;21848;-66
2023/09/01 01:46:05;;;;;;;3.10;0.90;;;22.10;74.40;;;;;;2286757;55;20965;-67
2023/09/01 01:48:36;;;;;;;2.35;1.00;;;22.10;74.40;;;;;;2286899;55;21113;-68
2023/09/01 01:51:05;;;;;;;2.70;1.00;;;22.10;74.20;;;;;;2286749;55;21361;-67
2023/09/01 01:53:40;;;;;;;2.83;0.90;;;22.10;74.60;;;;;;2521120;55;21000;-67
2023/09/01 01:56:09;;;;;;;3.25;1.10;;;22.10;73.90;;;;;;2287385;56;21547;-67
2023/09/01 01:58:35;;;;;;;4.05;1.17;;;21.90;74.10;;;;;;2287374;55;21013;-66
2023/09/01 02:01:06;;;;;;;3.55;1.50;;;22.10;74.50;;;;;;2286870;55;20946;-66
2023/09/01 02:03:33;;;;;;;3.60;1.00;;;22.10;74.20;;;;;;2521362;55;20982;-67
2023/09/01 02:06:00;;;;;;;2.90;0.90;;;22.10;74.50;;;;;;2520689;55;20962;-67
2023/09/01 02:08:27;;;;;;;2.47;0.80;;;22.00;74.50;;;;;;2521604;55;21726;-67
2023/09/01 02:10:55;;;;;;;3.35;1.12;;;22.10;74.60;;;;;;2520376;55;20966;-66
2023/09/01 02:13:25;;;;;;;2.35;0.90;;;22.00;74.50;;;;;;2287273;55;21014;-66
2023/09/01 02:15:55;;;;;;;2.17;0.75;;;22.10;74.50;;;;;;2286314;56;20986;-68
2023/09/01 02:18:21;;;;;;;2.03;0.90;;;22.10;74.20;;;;;;2521532;55;20973;-66
2023/09/01 02:20:48;;;;;;;1.92;0.75;;;22.10;74.60;;;;;;2286497;55;20942;-67
2023/09/01 02:23:15;;;;;;;2.53;0.70;;;22.10;74.60;;;;;;2521388;55;21104;-68
2023/09/01 02:25:41;;;;;;;1.67;0.77;;;22.10;74.60;;;;;;2520876;55;21703;-66
2023/09/01 02:28:08;;;;;;;1.75;0.80;;;22.10;74.70;;;;;;2286784;55;21833;-67
2023/09/01 02:30:34;;;;;;;1.48;0.62;;;22.20;74.90;;;;;;2286895;55;20958;-67
2023/09/01 02:33:01;;;;;;;1.90;0.77;;;22.20;74.90;;;;;;2286495;55;20961;-67
2023/09/01 02:35:27;;;;;;;1.55;0.70;;;22.20;74.90;;;;;;2287629;55;21065;-66
2023/09/01 02:37:54;;;;;;;1.90;0.68;;;22.20;75.00;;;;;;2520559;55;21042;-67
2023/09/01 02:40:24;;;;;;;5.15;1.10;;;22.20;75.00;;;;;;2287740;55;20927;-66
2023/09/01 02:42:56;;;;;;;1.77;0.80;;;22.20;75.00;;;;;;2287097;55;21915;-67
2023/09/01 02:45:24;;;;;;;1.70;0.70;;;22.20;75.00;;;;;;2521548;55;21001;-67
2023/09/01 02:47:50;;;;;;;2.15;0.77;;;22.20;75.00;;;;;;2286032;56;21366;-67
2023/09/01 02:50:17;;;;;;;1.87;0.70;;;22.20;75.00;;;;;;2521850;55;21018;-67
2023/09/01 02:52:43;;;;;;;1.20;0.60;;;22.20;75.00;;;;;;2287944;55;21018;-67
2023/09/01 02:55:14;;;;;;;1.83;0.70;;;22.30;75.10;;;;;;2287084;55;21477;-67
2023/09/01 02:57:41;;;;;;;1.98;0.73;;;22.30;75.20;;;;;;2286983;55;21030;-67
2023/09/01 03:02:58;;;;;;;1.25;0.60;;;22.30;75.30;;;;;;2520632;55;21902;-67
2023/09/01 03:05:25;;;;;;;1.90;0.75;;;22.30;75.30;;;;;;2287229;55;21002;-66
2023/09/01 03:08:05;;;;;;;2.30;0.60;;;22.30;75.30;;;;;;2520856;55;20982;-68
2023/09/01 03:10:43;;;;;;;2.37;0.57;;;22.40;74.20;;;;;;2521004;55;20986;-67
2023/09/01 03:13:09;;;;;;;1.95;0.65;;;22.30;74.30;;;;;;2287220;55;21846;-67
2023/09/01 03:15:37;;;;;;;2.92;0.70;;;22.40;75.40;;;;;;2286314;55;20982;-67
2023/09/01 03:18:03;;;;;;;1.55;0.50;;;22.40;75.40;;;;;;2286629;55;20954;-68
2023/09/01 03:20:30;;;;;;;1.92;0.70;;;22.40;75.40;;;;;;2287083;55;20951;-67
2023/09/01 03:22:56;;;;;;;1.67;0.60;;;22.40;75.40;;;;;;2286449;55;21030;-67
2023/09/01 03:25:22;;;;;;;1.80;0.52;;;22.40;75.40;;;;;;2521329;55;21773;-67
2023/09/01 03:27:49;;;;;;;2.40;0.70;;;22.40;75.30;;;;;;2285642;56;21001;-67
2023/09/01 03:30:15;;;;;;;2.53;0.73;;;22.40;75.30;;;;;;2519527;54;21219;-68
2023/09/01 03:32:42;;;;;;;1.80;0.57;;;22.40;75.30;;;;;;2286531;55;21079;-66
2023/09/01 03:35:09;;;;;;;2.85;0.85;;;22.40;75.30;;;;;;2515946;54;21027;-68
2023/09/01 03:37:37;;;;;;;2.47;0.93;;;22.40;75.30;;;;;;2285700;55;21011;-68
2023/09/01 03:40:09;;;;;;;1.62;0.60;;;22.40;75.10;;;;;;2519860;55;21075;-67
2023/09/01 03:46:06;;;;;;;2.50;0.75;;;22.50;73.90;;;;;;2510119;54;20999;-66
2023/09/01 03:48:34;;;;;;;1.20;0.60;;;22.50;75.50;;;;;;2519094;55;20962;-68
2023/09/01 03:51:15;;;;;;;1.17;0.50;;;22.50;75.50;;;;;;2286232;56;21147;-69
2023/09/01 03:53:44;;;;;;;2.30;0.70;;;22.50;74.30;;;;;;2286914;55;21036;-68
2023/09/01 03:56:15;;;;;;;1.17;0.60;;;22.50;75.50;;;;;;2520630;55;20942;-68
2023/09/01 03:58:42;;;;;;;1.60;0.80;;;22.50;75.10;;;;;;2520873;55;20935;-68
2023/09/01 04:01:09;;;;;;;1.55;0.50;;;22.50;75.40;;;;;;2520349;55;20966;-70
2023/09/01 04:03:36;;;;;;;2.20;0.60;;;22.50;75.50;;;;;;2287630;55;21020;-70
2023/09/01 04:06:04;;;;;;;1.85;0.70;;;22.50;75.40;;;;;;2520318;55;22210;-68
2023/09/01 04:08:34;;;;;;;2.15;0.60;;;22.50;75.40;;;;;;2521951;55;20934;-68
2023/09/01 04:11:03;;;;;;;1.10;0.40;;;22.50;75.50;;;;;;2286626;55;20930;-69
2023/09/01 04:13:32;;;;;;;2.37;0.62;;;22.50;75.50;;;;;;2287675;55;20954;-68
2023/09/01 04:15:59;;;;;;;1.27;0.50;;;22.50;75.30;;;;;;2285188;55;21745;-65
2023/09/01 04:18:28;;;;;;;3.10;0.68;;;22.50;75.50;;;;;;2287185;56;21795;-68
2023/09/01 04:20:55;;;;;;;1.55;0.70;;;22.50;75.50;;;;;;2264349;56;20930;-68
2023/09/01 04:23:22;;;;;;;2.22;0.80;;;22.40;75.40;;;;;;2290356;55;21048;-67
2023/09/01 04:25:49;;;;;;;1.58;0.70;;;22.50;75.40;;;;;;2282949;55;20995;-68
2023/09/01 04:28:16;;;;;;;1.58;0.65;;;22.40;75.40;;;;;;2521517;55;20958;-68
2023/09/01 04:30:43;;;;;;;1.55;0.60;;;22.40;75.40;;;;;;2287511;55;21009;-68
2023/09/01 04:33:09;;;;;;;2.47;0.57;;;22.40;75.40;;;;;;2287306;56;20922;-69
2023/09/01 04:35:36;;;;;;;3.67;0.60;;;22.40;75.50;;;;;;2287597;55;20990;-68
2023/09/01 04:38:02;;;;;;;2.50;0.70;;;22.40;75.50;;;;;;2520785;55;21006;-68
2023/09/01 04:40:29;;;;;;;1.50;0.60;;;22.40;75.50;;;;;;2521687;55;21090;-66
2023/09/01 04:42:55;;;;;;;1.50;0.60;;;22.40;75.60;;;;;;2286864;55;20950;-67
2023/09/01 04:45:23;;;;;;;1.92;0.60;;;22.40;75.50;;;;;;2289609;55;21282;-68
2023/09/01 04:47:50;;;;;;;2.05;0.65;;;22.40;75.60;;;;;;2286739;55;20995;-69
2023/09/01 04:50:17;;;;;;;3.42;0.85;;;22.30;75.30;;;;;;2286757;56;21728;-67
2023/09/01 04:52:43;;;;;;;1.98;0.77;;;22.30;75.40;;;;;;2521134;55;20970;-69
2023/09/01 04:55:10;;;;;;;2.12;0.68;;;22.30;75.40;;;;;;2287303;55;20994;-68
2023/09/01 04:57:36;;;;;;;1.83;0.70;;;22.30;75.40;;;;;;2520971;55;21833;-67
2023/09/01 05:00:07;;;;;;;2.50;0.80;;;22.20;75.40;;;;;;2286553;55;21785;-68
2023/09/01 05:02:39;;;;;;;1.70;0.68;;;22.20;75.40;;;;;;2287379;55;21014;-67
2023/09/01 05:05:05;;;;;;;2.03;0.70;;;22.20;75.10;;;;;;2286896;55;22137;-67
2023/09/01 05:07:33;;;;;;;1.50;0.60;;;22.20;75.50;;;;;;2286564;55;21833;-68
2023/09/01 05:09:59;;;;;;;2.12;0.70;;;22.10;75.60;;;;;;2286074;55;20958;-67
2023/09/01 05:12:27;;;;;;;1.23;0.50;;;22.10;75.70;;;;;;2255508;56;20985;-67
2023/09/01 05:14:54;;;;;;;2.22;0.80;;;22.10;75.70;;;;;;2251128;56;21469;-68
2023/09/01 05:17:20;;;;;;;2.58;0.80;;;22.10;75.70;;;;;;2251401;56;21040;-67
2023/09/01 05:19:47;;;;;;;1.90;0.70;;;22.10;75.70;;;;;;2508183;55;20931;-67
2023/09/01 05:22:13;;;;;;;1.55;0.60;;;22.10;75.80;;;;;;2277069;56;20951;-68
2023/09/01 05:24:41;;;;;;;1.65;0.60;;;22.00;75.80;;;;;;2509508;55;20951;-67
2023/09/01 05:27:07;;;;;;;1.45;0.60;;;22.00;75.90;;;;;;2278540;56;20979;-67
2023/09/01 05:29:36;;;;;;;1.77;0.60;;;22.00;75.90;;;;;;2278207;56;21472;-67
2023/09/01 05:32:03;;;;;;;1.30;0.57;;;21.90;75.70;;;;;;2250144;56;21770;-65
2023/09/01 05:34:30;;;;;;;1.12;0.50;;;21.90;75.80;;;;;;2256795;56;20989;-68
2023/09/01 05:36:57;;;;;;;1.58;0.60;;;21.90;75.90;;;;;;2484354;55;21130;-67
2023/09/01 05:39:23;;;;;;;1.37;0.60;;;21.90;76.00;;;;;;2483133;55;20983;-68
2023/09/01 05:41:50;;;;;;;1.67;0.60;;;21.90;76.00;;;;;;2483279;55;21026;-67
2023/09/01 05:44:18;;;;;;;1.25;0.60;;;21.90;76.00;;;;;;2256418;56;21022;-67
2023/09/01 05:46:46;;;;;;;1.67;0.70;;;21.90;76.10;;;;;;2484269;55;21029;-68
2023/09/01 05:49:12;;;;;;;1.37;0.65;;;21.80;76.00;;;;;;2256247;56;20973;-67
2023/09/01 05:51:38;;;;;;;2.70;0.80;;;21.80;76.10;;;;;;2256216;56;21501;-67
2023/09/01 05:54:05;;;;;;;2.25;0.88;;;21.80;76.20;;;;;;2256778;56;21066;-67
2023/09/01 05:56:31;;;;;;;1.80;0.73;;;21.80;76.20;;;;;;2467491;55;21113;-68
2023/09/01 05:58:58;;;;;;;2.60;0.80;;;21.80;76.30;;;;;;2476829;54;21031;-67
2023/09/01 06:01:32;;;;;;;3.55;1.00;;;21.80;76.20;;;;;;2256393;56;20966;-67
2023/09/01 06:04:00;;;;;;;1.90;0.70;;;21.80;76.30;;;;;;2484078;55;20962;-67
2023/09/01 06:06:26;;;;;;;1.80;0.65;;;21.80;76.60;;;;;;2261821;56;21442;-67
2023/09/01 06:08:53;;;;;;;2.67;0.90;;;21.80;76.50;;;;;;2483754;55;21497;-68
2023/09/01 06:11:19;;;;;;;1.40;0.60;;;21.80;76.60;;;;;;2256566;56;20974;-68
2023/09/01 06:13:45;;;;;;;2.80;1.00;;;21.80;76.70;;;;;;2483023;55;20919;-67
2023/09/01 06:16:14;;;;;;;2.55;0.80;;;21.80;76.80;;;;;;2256310;56;20943;-66
2023/09/01 06:18:40;;;;;;;1.73;0.70;;;21.80;76.90;;;;;;2484649;55;20935;-68
2023/09/01 06:21:07;;;;;;;2.15;0.80;;;21.80;77.00;;;;;;2490773;55;20938;-67
2023/09/01 06:23:33;;;;;;;1.87;0.70;;;21.80;77.40;;;;;;2258551;56;21093;-68
2023/09/01 06:26:00;;;;;;;2.70;0.80;;;21.80;77.10;;;;;;2250627;56;21014;-68
2023/09/01 06:28:26;;;;;;;1.95;0.70;;;21.90;77.20;;;;;;2484149;55;20977;-66
2023/09/01 06:30:52;;;;;;;1.80;0.80;;;21.90;77.20;;;;;;2480348;55;21030;-68
2023/09/01 06:33:19;;;;;;;3.28;0.85;;;21.90;77.20;;;;;;2490281;55;21054;-67
2023/09/01 06:35:49;;;;;;;2.22;0.90;;;21.90;77.20;;;;;;2491184;55;21094;-67
2023/09/01 06:38:22;;;;;;;2.05;0.85;;;21.90;77.00;;;;;;2512632;55;21029;-68
2023/09/01 06:40:49;;;;;;;2.58;1.05;;;21.90;77.20;;;;;;2255709;56;20978;-68
2023/09/01 06:43:17;;;;;;;2.90;1.15;;;22.00;77.40;;;;;;2255944;56;20950;-68
2023/09/01 06:45:43;;;;;;;2.15;0.95;;;22.00;77.30;;;;;;2234326;56;20991;-70
2023/09/01 06:48:10;;;;;;;3.17;1.00;;;22.00;77.30;;;;;;2476318;55;21591;-67
2023/09/01 06:50:41;;;;;;;2.17;0.90;;;22.00;77.10;;;;;;2484275;55;21058;-69
2023/09/01 06:53:07;;;;;;;1.85;0.85;;;22.00;76.80;;;;;;2251251;56;21802;-67
2023/09/01 06:55:37;;;;;;;2.92;1.00;;;22.00;76.60;;;;;;2481560;55;20960;-67
2023/09/01 06:58:05;;;;;;;2.25;0.75;;;22.00;76.50;;;;;;2243858;56;21111;-68
2023/09/01 07:00:32;;;;;;;2.37;0.85;;;22.00;76.30;;;;;;2476039;55;21028;-68
2023/09/01 07:02:58;;;;;;;2.55;1.10;;;22.00;76.20;;;;;;2474118;55;20989;-66
2023/09/01 07:05:25;;;;;;;2.42;0.80;;;21.90;76.10;;;;;;2256425;55;22627;-66
2023/09/01 07:07:52;;;;;;;2.12;0.85;;;21.90;76.10;;;;;;2484131;55;20954;-66
2023/09/01 07:10:19;;;;;;;2.20;0.77;;;21.90;76.20;;;;;;2482674;55;21046;-66
2023/09/01 07:12:45;;;;;;;2.78;1.00;;;21.90;76.20;;;;;;2256240;55;21029;-66
2023/09/01 07:15:12;;;;;;;3.05;0.90;;;21.90;76.20;;;;;;2488404;55;21098;-65
2023/09/01 07:17:39;;;;;;;2.15;1.00;;;21.80;76.00;;;;;;2244894;56;21005;-65
2023/09/01 07:20:06;;;;;;;2.03;0.95;;;21.80;76.00;;;;;;2467022;55;20942;-67
2023/09/01 07:22:33;;;;;;;2.47;0.82;;;21.80;76.00;;;;;;2484449;55;21477;-67
2023/09/01 07:25:00;;;;;;;2.17;0.90;;;21.80;76.00;;;;;;2261936;56;21744;-67
2023/09/01 07:27:29;;;;;;;2.95;0.90;;;21.80;76.00;;;;;;2255805;56;20974;-66
2023/09/01 07:29:55;;;;;;;2.58;0.90;;;21.80;76.00;;;;;;2251634;56;21719;-67
2023/09/01 07:32:23;;;;;;;2.12;0.90;;;21.80;76.30;;;;;;2483902;55;21502;-67
2023/09/01 07:34:49;;;;;;;2.70;1.10;;;21.80;76.40;;;;;;2256519;56;20983;-67
2023/09/01 07:37:16;;;;;;;2.58;1.02;;;21.80;76.40;;;;;;2484460;55;21050;-66
2023/09/01 07:39:45;;;;;;;3.03;1.10;;;21.80;77.10;;;;;;2484092;55;20966;-66
2023/09/01 07:42:11;;;;;;;3.85;1.00;;;21.80;76.40;;;;;;2484609;55;21042;-68
2023/09/01 07:44:38;;;;;;;2.17;0.88;;;21.80;76.60;;;;;;2483304;55;21036;-65
2023/09/01 07:47:04;;;;;;;2.25;1.08;;;21.80;76.80;;;;;;2484181;55;21487;-67
2023/09/01 07:49:30;;;;;;;2.25;0.90;;;21.80;76.90;;;;;;2256660;56;20983;-68
2023/09/01 07:52:00;;;;;;;2.55;1.10;;;21.80;77.10;;;;;;2483273;55;21046;-67
2023/09/01 07:54:26;;;;;;;2.20;1.10;;;21.80;77.20;;;;;;2256271;56;20958;-68
2023/09/01 07:56:53;;;;;;;2.78;1.15;;;21.90;77.50;;;;;;2256327;56;20961;-68
2023/09/01 07:59:19;;;;;;;2.10;0.85;;;21.90;77.70;;;;;;2454632;55;21012;-68
2023/09/01 08:01:46;;;;;;;2.35;1.10;;;21.90;77.80;;;;;;2478280;55;20953;-67
2023/09/01 08:04:12;;;;;;;2.95;1.20;;;22.00;77.80;;;;;;2484227;55;20970;-68
2023/09/01 08:06:38;;;;;;;2.80;1.20;;;22.00;77.90;;;;;;2256369;56;20983;-67
2023/09/01 08:09:05;;;;;;;3.50;1.20;;;22.10;78.70;;;;;;2256666;56;21490;-67
2023/09/01 08:11:32;;;;;;;3.10;1.10;;;22.10;78.00;;;;;;2484111;55;21073;-68
2023/09/01 08:14:01;;;;;;;3.78;1.42;;;22.20;78.20;;;;;;2256145;56;21595;-69
2023/09/01 08:16:27;;;;;;;2.85;1.20;;;22.20;78.30;;;;;;2256377;56;21114;-67
2023/09/01 08:18:58;;;;;;;2.22;0.90;;;22.30;78.40;;;;;;2261502;56;20982;-67
2023/09/01 08:21:25;;;;;;;2.30;1.10;;;22.30;78.40;;;;;;2484361;55;21027;-67
2023/09/01 08:23:51;;;;;;;3.85;1.10;;;22.40;78.50;;;;;;2256062;56;21071;-67
2023/09/01 08:26:18;;;;;;;2.65;1.10;;;22.40;78.50;;;;;;2255941;56;21371;-68
2023/09/01 08:28:44;;;;;;;3.83;1.37;;;22.50;79.30;;;;;;2483090;55;20951;-67
2023/09/01 08:31:10;;;;;;;3.08;1.10;;;22.50;78.30;;;;;;2484395;55;21006;-68
2023/09/01 08:33:40;;;;;;;2.50;0.98;;;22.50;78.20;;;;;;2484151;55;20927;-69
2023/09/01 08:36:07;;;;;;;2.22;1.00;;;22.60;78.40;;;;;;2484687;55;20958;-68
2023/09/01 08:38:35;;;;;;;2.00;0.95;;;22.60;78.40;;;;;;2271447;56;20983;-68
2023/09/01 08:41:03;;;;;;;1.83;0.88;;;22.70;78.40;;;;;;2287595;55;21006;-68
2023/09/01 08:43:32;;;;;;;2.08;1.10;;;22.70;78.20;;;;;;2287094;55;21050;-68
2023/09/01 08:45:59;;;;;;;3.33;1.30;;;22.80;78.40;;;;;;2520751;55;21468;-67
2023/09/01 08:48:32;;;;;;;2.55;1.10;;;22.80;78.20;;;;;;2291178;55;21506;-68
2023/09/01 08:50:58;;;;;;;3.05;1.00;;;22.80;78.00;;;;;;2514860;54;20999;-68
2023/09/01 08:53:25;;;;;;;2.15;0.90;;;22.90;78.10;;;;;;2516757;54;21003;-68
2023/09/01 08:55:52;;;;;;;2.85;1.17;;;22.90;78.20;;;;;;2287059;55;21026;-67
2023/09/01 08:58:19;;;;;;;3.65;1.12;;;22.90;78.10;;;;;;2521829;55;20923;-67
2023/09/01 09:00:45;;;;;;;3.55;0.98;;;23.00;78.20;;;;;;2521125;55;21870;-68
2023/09/01 09:03:12;;;;;;;1.80;0.90;;;23.00;78.20;;;;;;2287160;56;20990;-68
2023/09/01 09:05:38;;;;;;;2.50;0.90;;;23.10;78.30;;;;;;2285895;55;20923;-66
2023/09/01 09:08:08;;;;;;;4.28;1.55;;;23.10;78.30;;;;;;2521537;55;21659;-68
2023/09/01 09:10:38;;;;;;;2.03;0.80;;;23.20;78.10;;;;;;2483914;55;20977;-67
2023/09/01 09:13:20;;;;;;;2.37;1.10;;;23.20;78.00;;;;;;2255791;56;20978;-68
2023/09/01 09:16:11;;;;;;;2.20;0.95;;;23.30;78.20;;;;;;2256120;56;20962;-67
2023/09/01 09:18:39;;;;;;;2.47;0.98;;;23.30;77.70;;;;;;2506218;55;21705;-69
2023/09/01 09:21:29;;;;;;;3.85;1.30;;;23.40;78.20;;;;;;2256434;56;21608;-68
2023/09/01 09:23:57;;;;;;;3.35;0.90;;;23.40;78.00;;;;;;2255952;56;21022;-67
2023/09/01 09:26:33;;;;;;;3.12;1.30;;;23.50;78.00;;;;;;2483785;55;20954;-69
2023/09/01 09:29:06;;;;;;;2.55;1.00;;;23.50;77.80;;;;;;2255201;56;21049;-70
2023/09/01 09:31:36;;;;;;;3.22;1.20;;;23.50;77.40;;;;;;2483563;55;20986;-69
2023/09/01 09:34:17;;;;;;;3.50;1.12;;;23.60;77.40;;;;;;2256568;56;21014;-70
2023/09/01 09:36:47;;;;;;;2.03;0.80;;;23.60;76.50;;;;;;2260056;56;20959;-70
2023/09/01 09:39:34;;;;;;;3.17;1.02;;;23.60;77.10;;;;;;2261966;56;21287;-72
2023/09/01 09:42:00;;;;;;;2.45;0.98;;;23.60;76.10;;;;;;2481158;55;21022;-71
2023/09/01 09:44:33;;;;;;;1.98;0.90;;;23.60;77.20;;;;;;2256146;56;21038;-68
2023/09/01 09:47:09;;;;;;;2.72;1.02;;;23.70;77.00;;;;;;2272223;55;20979;-69
2023/09/01 09:49:36;;;;;;;4.25;1.05;;;23.70;77.20;;;;;;2484303;55;21510;-68
2023/09/01 09:52:04;;;;;;;3.17;1.00;;;23.80;77.30;;;;;;2483258;55;21020;-69
2023/09/01 09:54:31;;;;;;;5.28;1.00;;;23.80;76.90;;;;;;2485012;55;21017;-67
2023/09/01 09:56:57;;;;;;;2.05;1.05;;;23.80;76.60;;;;;;2484537;55;20959;-67
2023/09/01 09:59:27;;;;;;;2.62;0.90;;;23.80;76.70;;;;;;2484441;55;21409;-68
2023/09/01 10:01:54;;;;;;;1.77;0.80;;;23.80;76.60;;;;;;2483172;55;21019;-68
2023/09/01 10:04:21;;;;;;;2.05;0.77;;;23.80;76.30;;;;;;2464255;55;21029;-68
2023/09/01 10:06:47;;;;;;;1.85;0.73;;;23.90;76.30;;;;;;2468296;55;20982;-68
2023/09/01 10:09:17;;;;;;;2.33;0.98;;;23.90;76.20;;;;;;2257095;56;21725;-68
2023/09/01 10:11:45;;;;;;;1.75;0.75;;;23.90;76.10;;;;;;2482889;55;21034;-68
2023/09/01 10:14:13;;;;;;;2.40;0.90;;;23.90;75.90;;;;;;2483536;55;21033;-68
2023/09/01 10:16:50;;;;;;;2.55;0.80;;;23.90;75.60;;;;;;2482651;55;20955;-66
2023/09/01 10:19:19;;;;;;;2.28;0.90;;;23.90;74.80;;;;;;2284345;55;20934;-69
2023/09/01 10:21:46;;;;;;;2.80;1.00;;;23.90;75.50;;;;;;2520823;55;21045;-67
2023/09/01 10:24:16;;;;;;;2.47;1.00;;;23.90;75.50;;;;;;2287799;56;20939;-69
2023/09/01 10:26:43;;;;;;;3.75;0.85;;;24.00;75.70;;;;;;2285689;56;21038;-69
2023/09/01 10:29:13;;;;;;;1.80;0.70;;;24.00;75.70;;;;;;2286380;55;21030;-67
2023/09/01 10:31:42;;;;;;;2.35;0.82;;;24.00;75.90;;;;;;2516654;54;21095;-68
2023/09/01 10:34:12;;;;;;;3.33;0.95;;;24.00;75.70;;;;;;2518722;54;21010;-69
2023/09/01 10:36:45;;;;;;;2.85;0.93;;;24.10;75.60;;;;;;2286346;56;21090;-70
2023/09/01 10:39:24;;;;;;;1.73;0.80;;;24.10;75.50;;;;;;2286985;55;20987;-68
2023/09/01 10:41:55;;;;;;;2.40;0.65;;;24.10;75.20;;;;;;2515868;54;21736;-68
2023/09/01 10:44:22;;;;;;;2.20;0.90;;;24.10;75.80;;;;;;2520717;55;20954;-68
2023/09/01 10:46:49;;;;;;;2.22;0.70;;;24.20;76.20;;;;;;2287826;56;21058;-69
2023/09/01 10:49:15;;;;;;;1.95;0.80;;;24.20;76.30;;;;;;2287371;55;21745;-69
2023/09/01 10:51:41;;;;;;;3.03;0.80;;;24.20;76.30;;;;;;2520650;55;21423;-68
2023/09/01 10:54:42;;;;;;;2.10;0.80;;;24.20;76.30;;;;;;2520817;55;20930;-67
2023/09/01 10:57:12;;;;;;;2.50;0.60;;;24.30;74.80;;;;;;2286496;55;21050;-70
2023/09/01 10:59:40;;;;;;;2.10;0.90;;;24.30;76.30;;;;;;2286589;56;21015;-68
2023/09/01 11:02:27;;;;;;;2.35;0.77;;;24.40;76.80;;;;;;2520510;55;21053;-69
2023/09/01 11:04:55;;;;;;;2.45;1.05;;;24.40;75.60;;;;;;2520314;55;20990;-70
2023/09/01 11:07:22;;;;;;;4.65;0.90;;;24.40;77.10;;;;;;2287148;55;21010;-68
2023/09/01 11:09:49;;;;;;;3.42;1.10;;;24.60;77.20;;;;;;2516397;54;20960;-68
2023/09/01 11:15:55;;;;;;;1.58;0.60;;;24.60;75.90;;;;;;2520543;55;21393;-68
2023/09/01 11:18:24;;;;;;;3.08;1.05;;;24.70;77.50;;;;;;2520648;55;20986;-66
2023/09/01 11:20:55;;;;;;;3.08;0.90;;;24.80;77.30;;;;;;2286396;55;21070;-69
2023/09/01 11:23:23;;;;;;;2.37;1.00;;;24.90;77.10;;;;;;2290892;56;21054;-67
2023/09/01 11:25:59;;;;;;;2.25;1.02;;;25.00;77.50;;;;;;2517923;54;21083;-67
2023/09/01 11:28:25;;;;;;;1.77;0.88;;;25.10;76.70;;;;;;2519168;55;20982;-67
2023/09/01 11:30:53;;;;;;;2.30;0.82;;;25.10;77.30;;;;;;2285622;56;20974;-67
2023/09/01 11:33:22;;;;;;;2.87;1.00;;;25.20;77.50;;;;;;2286039;56;20995;-67
2023/09/01 11:35:49;;;;;;;2.45;1.35;;;25.30;77.30;;;;;;2286434;55;20946;-66
2023/09/01 11:38:19;;;;;;;2.20;0.77;;;25.40;77.70;;;;;;2507335;54;20999;-67
2023/09/01 11:40:47;;;;;;;2.22;0.88;;;25.50;77.20;;;;;;2277259;56;21083;-67
2023/09/01 11:43:13;;;;;;;3.30;1.02;;;25.50;77.40;;;;;;2286625;55;20950;-66
2023/09/01 11:45:46;;;;;;;3.53;1.10;;;25.60;77.30;;;;;;2286407;55;20971;-65
2023/09/01 11:48:13;;;;;;;2.05;0.90;;;25.70;76.30;;;;;;2515437;55;22042;-68
2023/09/01 11:50:45;;;;;;;2.65;1.00;;;25.80;76.90;;;;;;2286551;56;20950;-65
2023/09/01 11:53:21;;;;;;;1.60;0.77;;;25.90;75.60;;;;;;2286438;56;20962;-65
2023/09/01 11:55:47;;;;;;;3.30;0.90;;;25.90;75.00;;;;;;2285603;55;20996;-68
2023/09/01 11:58:13;;;;;;;1.87;0.75;;;26.00;76.10;;;;;;2286860;56;20958;-69
2023/09/01 12:00:40;;;;;;;2.10;0.75;;;26.00;76.10;;;;;;2286092;55;21421;-68
2023/09/01 12:03:07;;;;;;;2.40;0.90;;;26.10;75.90;;;;;;2520806;55;20942;-68
2023/09/01 12:05:35;;;;;;;2.00;0.90;;;26.10;75.70;;;;;;2520426;55;20934;-67
2023/09/01 12:08:02;;;;;;;2.10;0.90;;;26.20;75.30;;;;;;2286098;56;20930;-69
2023/09/01 12:10:31;;;;;;;1.85;0.75;;;26.20;75.40;;;;;;2285983;55;21014;-68
2023/09/01 12:13:10;;;;;;;1.90;0.80;;;26.20;75.60;;;;;;2285654;55;22497;-68
2023/09/01 12:15:59;;;;;;;1.80;0.80;;;26.30;73.60;;;;;;2483774;55;21001;-67
2023/09/01 12:18:30;;;;;;;2.20;0.80;;;26.30;73.10;;;;;;2480442;55;21738;-68
2023/09/01 12:20:56;;;;;;;2.00;0.80;;;26.40;74.80;;;;;;2255589;56;21882;-67
2023/09/01 12:23:29;;;;;;;1.67;0.60;;;26.40;75.30;;;;;;2256582;56;21021;-70
2023/09/01 12:25:56;;;;;;;2.62;0.70;;;26.40;74.30;;;;;;2255385;56;20957;-68
2023/09/01 12:31:53;;;;;;;1.95;0.80;;;26.50;73.80;;;;;;2483187;55;20947;-67
2023/09/01 12:34:19;;;;;;;2.05;0.75;;;26.60;75.40;;;;;;2255836;56;20934;-69
2023/09/01 12:36:45;;;;;;;1.90;0.82;;;26.60;74.80;;;;;;2483481;55;20958;-67
2023/09/01 12:39:13;;;;;;;2.80;1.10;;;26.60;74.40;;;;;;2255752;56;21020;-66
2023/09/01 12:41:41;;;;;;;2.00;0.80;;;26.60;74.00;;;;;;2251923;56;20967;-67
2023/09/01 12:44:07;;;;;;;2.05;0.80;;;26.60;73.80;;;;;;2261408;56;21479;-68
2023/09/01 12:46:33;;;;;;;1.55;0.70;;;26.70;74.20;;;;;;2255708;56;21142;-67
2023/09/01 12:49:00;;;;;;;2.42;0.70;;;26.70;74.50;;;;;;2255724;56;21029;-67
2023/09/01 12:51:27;;;;;;;1.52;0.73;;;26.70;74.80;;;;;;2484040;55;21091;-69
2023/09/01 12:53:53;;;;;;;1.80;0.80;;;26.70;74.90;;;;;;2252756;56;21074;-67
2023/09/01 12:59:48;;;;;;;1.70;0.68;;;26.80;72.80;;;;;;2482897;55;20995;-68
2023/09/01 13:02:14;;;;;;;2.37;1.00;;;26.90;75.40;;;;;;2484510;55;20982;-66
2023/09/01 13:04:43;;;;;;;2.85;0.93;;;27.00;75.40;;;;;;2484096;55;20954;-66
2023/09/01 13:07:11;;;;;;;2.30;1.00;;;27.10;74.90;;;;;;2455932;55;20992;-67
2023/09/01 13:09:38;;;;;;;2.17;0.85;;;27.10;74.50;;;;;;2256324;56;21031;-68
2023/09/01 13:15:29;;;;;;;2.17;0.80;;;27.20;72.20;;;;;;2484325;55;20974;-67
2023/09/01 13:17:56;;;;;;;2.50;1.05;;;27.20;74.10;;;;;;2477256;55;21340;-67
2023/09/01 13:20:22;;;;;;;1.70;0.70;;;27.20;74.50;;;;;;2256595;56;21064;-67